sensor_id;sensor_type;location;lat;lon;timestamp;P1;durP1;ratioP1;P2;durP2;ratioP2
9597;SDS011;4837;50.890;4.724;2023-02-01T00:01:59;18.43;;;6.77;;
9597;SDS011;4837;50.890;4.724;2023-02-01T00:04:25;20.60;;;6.37;;
9597;SDS011;4837;50.890;4.724;2023-02-01T00:06:52;19.47;;;5.80;;
9597;SDS011;4837;50.890;4.724;2023-02-01T00:09:18;12.67;;;5.67;;
9597;SDS011;4837;50.890;4.724;2023-02-01T00:11:44;15.23;;;5.53;;
9597;SDS011;4837;50.890;4.724;2023-02-01T00:14:10;14.90;;;5.70;;
9597;SDS011;4837;50.890;4.724;2023-02-01T00:16:36;14.33;;;5.20;;
9597;SDS011;4837;50.890;4.724;2023-02-01T00:19:04;17.57;;;5.63;;
9597;SDS011;4837;50.890;4.724;2023-02-01T00:21:31;18.87;;;5.07;;
9597;SDS011;4837;50.890;4.724;2023-02-01T00:23:57;20.43;;;5.50;;
9597;SDS011;4837;50.890;4.724;2023-02-01T00:26:30;10.30;;;4.80;;
9597;SDS011;4837;50.890;4.724;2023-02-01T00:28:57;12.33;;;5.20;;
9597;SDS011;4837;50.890;4.724;2023-02-01T00:31:23;18.93;;;5.07;;
9597;SDS011;4837;50.890;4.724;2023-02-01T00:33:49;15.53;;;5.00;;
9597;SDS011;4837;50.890;4.724;2023-02-01T00:36:16;16.48;;;5.07;;
9597;SDS011;4837;50.890;4.724;2023-02-01T00:38:43;21.47;;;5.47;;
9597;SDS011;4837;50.890;4.724;2023-02-01T00:41:11;13.83;;;5.00;;
9597;SDS011;4837;50.890;4.724;2023-02-01T00:43:38;20.20;;;5.10;;
9597;SDS011;4837;50.890;4.724;2023-02-01T00:46:04;15.33;;;5.77;;
9597;SDS011;4837;50.890;4.724;2023-02-01T00:48:31;18.70;;;5.93;;
9597;SDS011;4837;50.890;4.724;2023-02-01T00:51:01;15.63;;;5.80;;
9597;SDS011;4837;50.890;4.724;2023-02-01T00:53:27;15.20;;;5.60;;
9597;SDS011;4837;50.890;4.724;2023-02-01T00:55:53;18.30;;;5.77;;
9597;SDS011;4837;50.890;4.724;2023-02-01T00:58:19;14.83;;;6.23;;
9597;SDS011;4837;50.890;4.724;2023-02-01T01:00:46;17.10;;;6.53;;
9597;SDS011;4837;50.890;4.724;2023-02-01T01:03:14;16.00;;;6.43;;
9597;SDS011;4837;50.890;4.724;2023-02-01T01:05:45;17.40;;;6.77;;
9597;SDS011;4837;50.890;4.724;2023-02-01T01:08:12;16.60;;;7.00;;
9597;SDS011;4837;50.890;4.724;2023-02-01T01:10:38;17.20;;;7.10;;
9597;SDS011;4837;50.890;4.724;2023-02-01T01:13:05;16.47;;;6.40;;
9597;SDS011;4837;50.890;4.724;2023-02-01T01:15:35;17.87;;;6.50;;
9597;SDS011;4837;50.890;4.724;2023-02-01T01:18:01;18.93;;;6.40;;
9597;SDS011;4837;50.890;4.724;2023-02-01T01:20:28;14.47;;;5.73;;
9597;SDS011;4837;50.890;4.724;2023-02-01T01:22:54;19.23;;;5.60;;
9597;SDS011;4837;50.890;4.724;2023-02-01T01:25:20;18.60;;;5.83;;
9597;SDS011;4837;50.890;4.724;2023-02-01T01:27:46;15.63;;;4.93;;
9597;SDS011;4837;50.890;4.724;2023-02-01T01:30:13;17.00;;;5.27;;
9597;SDS011;4837;50.890;4.724;2023-02-01T01:32:39;16.43;;;5.20;;
9597;SDS011;4837;50.890;4.724;2023-02-01T01:35:05;18.63;;;5.13;;
9597;SDS011;4837;50.890;4.724;2023-02-01T01:37:31;15.20;;;5.43;;
9597;SDS011;4837;50.890;4.724;2023-02-01T01:39:57;14.30;;;4.77;;
9597;SDS011;4837;50.890;4.724;2023-02-01T01:42:23;16.70;;;4.27;;
9597;SDS011;4837;50.890;4.724;2023-02-01T01:47:35;17.23;;;4.63;;
9597;SDS011;4837;50.890;4.724;2023-02-01T01:50:03;17.90;;;5.20;;
9597;SDS011;4837;50.890;4.724;2023-02-01T01:52:30;15.53;;;4.90;;
9597;SDS011;4837;50.890;4.724;2023-02-01T01:54:56;15.97;;;4.93;;
9597;SDS011;4837;50.890;4.724;2023-02-01T01:57:27;12.37;;;4.57;;
9597;SDS011;4837;50.890;4.724;2023-02-01T02:00:06;16.70;;;4.87;;
9597;SDS011;4837;50.890;4.724;2023-02-01T02:02:33;16.70;;;4.87;;
9597;SDS011;4837;50.890;4.724;2023-02-01T02:04:59;13.60;;;4.80;;
9597;SDS011;4837;50.890;4.724;2023-02-01T02:07:30;19.30;;;5.03;;
9597;SDS011;4837;50.890;4.724;2023-02-01T02:09:57;17.43;;;4.60;;
9597;SDS011;4837;50.890;4.724;2023-02-01T02:12:24;14.13;;;4.20;;
9597;SDS011;4837;50.890;4.724;2023-02-01T02:14:50;13.60;;;4.60;;
9597;SDS011;4837;50.890;4.724;2023-02-01T02:28:13;11.90;;;3.80;;
9597;SDS011;4837;50.890;4.724;2023-02-01T02:40:57;12.00;;;3.70;;
9597;SDS011;4837;50.890;4.724;2023-02-01T02:43:32;23.70;;;5.30;;
9597;SDS011;4837;50.890;4.724;2023-02-01T02:46:22;14.73;;;3.93;;
9597;SDS011;4837;50.890;4.724;2023-02-01T02:49:11;16.50;;;4.47;;
9597;SDS011;4837;50.890;4.724;2023-02-01T02:51:41;12.60;;;3.10;;
9597;SDS011;4837;50.890;4.724;2023-02-01T02:54:32;14.33;;;4.03;;
9597;SDS011;4837;50.890;4.724;2023-02-01T02:57:12;15.90;;;4.03;;
9597;SDS011;4837;50.890;4.724;2023-02-01T02:59:58;12.90;;;3.60;;
9597;SDS011;4837;50.890;4.724;2023-02-01T03:02:43;16.17;;;3.53;;
9597;SDS011;4837;50.890;4.724;2023-02-01T03:05:33;19.63;;;4.00;;
9597;SDS011;4837;50.890;4.724;2023-02-01T03:08:10;17.03;;;3.80;;
9597;SDS011;4837;50.890;4.724;2023-02-01T03:15:50;12.20;;;3.70;;
9597;SDS011;4837;50.890;4.724;2023-02-01T03:18:19;16.13;;;3.70;;
9597;SDS011;4837;50.890;4.724;2023-02-01T03:20:48;14.50;;;4.07;;
9597;SDS011;4837;50.890;4.724;2023-02-01T03:23:16;13.80;;;3.77;;
9597;SDS011;4837;50.890;4.724;2023-02-01T03:25:44;15.43;;;3.17;;
9597;SDS011;4837;50.890;4.724;2023-02-01T03:28:10;13.70;;;3.70;;
9597;SDS011;4837;50.890;4.724;2023-02-01T03:30:40;13.37;;;3.97;;
9597;SDS011;4837;50.890;4.724;2023-02-01T03:33:15;12.30;;;4.20;;
9597;SDS011;4837;50.890;4.724;2023-02-01T03:43:49;16.57;;;4.53;;
9597;SDS011;4837;50.890;4.724;2023-02-01T03:46:18;18.53;;;4.03;;
9597;SDS011;4837;50.890;4.724;2023-02-01T03:48:46;14.83;;;3.70;;
9597;SDS011;4837;50.890;4.724;2023-02-01T03:51:14;12.83;;;4.17;;
9597;SDS011;4837;50.890;4.724;2023-02-01T03:53:40;17.80;;;3.97;;
9597;SDS011;4837;50.890;4.724;2023-02-01T03:56:08;13.40;;;3.50;;
9597;SDS011;4837;50.890;4.724;2023-02-01T03:58:36;13.57;;;3.77;;
9597;SDS011;4837;50.890;4.724;2023-02-01T04:01:03;12.77;;;3.30;;
9597;SDS011;4837;50.890;4.724;2023-02-01T04:03:29;21.67;;;4.43;;
9597;SDS011;4837;50.890;4.724;2023-02-01T04:05:55;16.93;;;4.13;;
9597;SDS011;4837;50.890;4.724;2023-02-01T04:08:22;14.53;;;3.60;;
9597;SDS011;4837;50.890;4.724;2023-02-01T04:10:48;15.77;;;3.97;;
9597;SDS011;4837;50.890;4.724;2023-02-01T04:13:14;14.43;;;4.20;;
9597;SDS011;4837;50.890;4.724;2023-02-01T04:15:40;18.50;;;3.43;;
9597;SDS011;4837;50.890;4.724;2023-02-01T04:18:06;17.87;;;4.10;;
9597;SDS011;4837;50.890;4.724;2023-02-01T04:20:32;15.43;;;3.50;;
9597;SDS011;4837;50.890;4.724;2023-02-01T04:22:58;15.43;;;3.60;;
9597;SDS011;4837;50.890;4.724;2023-02-01T04:25:27;15.30;;;4.13;;
9597;SDS011;4837;50.890;4.724;2023-02-01T04:27:53;19.00;;;4.23;;
9597;SDS011;4837;50.890;4.724;2023-02-01T04:30:19;14.13;;;3.93;;
9597;SDS011;4837;50.890;4.724;2023-02-01T04:32:45;11.70;;;3.30;;
9597;SDS011;4837;50.890;4.724;2023-02-01T04:35:12;15.30;;;4.03;;
9597;SDS011;4837;50.890;4.724;2023-02-01T04:37:38;19.73;;;3.77;;
9597;SDS011;4837;50.890;4.724;2023-02-01T04:40:04;21.10;;;4.57;;
9597;SDS011;4837;50.890;4.724;2023-02-01T04:42:30;18.73;;;4.00;;
9597;SDS011;4837;50.890;4.724;2023-02-01T04:44:56;18.93;;;3.83;;
9597;SDS011;4837;50.890;4.724;2023-02-01T04:47:22;13.20;;;3.63;;
9597;SDS011;4837;50.890;4.724;2023-02-01T04:49:48;16.43;;;3.67;;
9597;SDS011;4837;50.890;4.724;2023-02-01T04:52:15;16.40;;;3.53;;
9597;SDS011;4837;50.890;4.724;2023-02-01T04:54:41;11.47;;;3.70;;
9597;SDS011;4837;50.890;4.724;2023-02-01T04:57:07;17.63;;;3.80;;
9597;SDS011;4837;50.890;4.724;2023-02-01T04:59:33;18.83;;;3.90;;
9597;SDS011;4837;50.890;4.724;2023-02-01T05:01:59;19.00;;;3.70;;
9597;SDS011;4837;50.890;4.724;2023-02-01T05:04:25;18.20;;;3.67;;
9597;SDS011;4837;50.890;4.724;2023-02-01T05:06:51;16.20;;;3.97;;
9597;SDS011;4837;50.890;4.724;2023-02-01T05:09:17;21.30;;;4.23;;
9597;SDS011;4837;50.890;4.724;2023-02-01T05:11:43;14.00;;;3.47;;
9597;SDS011;4837;50.890;4.724;2023-02-01T05:14:28;21.97;;;4.07;;
9597;SDS011;4837;50.890;4.724;2023-02-01T05:16:54;17.07;;;4.40;;
9597;SDS011;4837;50.890;4.724;2023-02-01T05:19:20;14.57;;;4.17;;
9597;SDS011;4837;50.890;4.724;2023-02-01T05:21:46;19.87;;;4.07;;
9597;SDS011;4837;50.890;4.724;2023-02-01T05:24:12;19.63;;;3.50;;
9597;SDS011;4837;50.890;4.724;2023-02-01T05:26:41;20.83;;;4.27;;
9597;SDS011;4837;50.890;4.724;2023-02-01T05:29:08;23.23;;;4.20;;
9597;SDS011;4837;50.890;4.724;2023-02-01T05:31:34;13.60;;;3.97;;
9597;SDS011;4837;50.890;4.724;2023-02-01T05:34:01;19.27;;;4.17;;
9597;SDS011;4837;50.890;4.724;2023-02-01T05:36:27;15.40;;;4.20;;
9597;SDS011;4837;50.890;4.724;2023-02-01T05:38:53;14.80;;;3.80;;
9597;SDS011;4837;50.890;4.724;2023-02-01T05:41:19;15.33;;;4.43;;
9597;SDS011;4837;50.890;4.724;2023-02-01T05:43:45;25.43;;;5.10;;
9597;SDS011;4837;50.890;4.724;2023-02-01T05:46:11;18.67;;;4.30;;
9597;SDS011;4837;50.890;4.724;2023-02-01T05:48:41;20.07;;;4.30;;
9597;SDS011;4837;50.890;4.724;2023-02-01T05:51:07;11.83;;;4.07;;
9597;SDS011;4837;50.890;4.724;2023-02-01T05:53:34;16.70;;;4.13;;
9597;SDS011;4837;50.890;4.724;2023-02-01T05:56:00;17.83;;;4.07;;
9597;SDS011;4837;50.890;4.724;2023-02-01T05:58:26;18.37;;;4.53;;
9597;SDS011;4837;50.890;4.724;2023-02-01T06:00:52;16.90;;;4.47;;
9597;SDS011;4837;50.890;4.724;2023-02-01T06:03:18;15.40;;;3.70;;
9597;SDS011;4837;50.890;4.724;2023-02-01T06:05:45;16.87;;;3.77;;
9597;SDS011;4837;50.890;4.724;2023-02-01T06:08:11;16.03;;;4.00;;
9597;SDS011;4837;50.890;4.724;2023-02-01T06:10:38;16.07;;;3.77;;
9597;SDS011;4837;50.890;4.724;2023-02-01T06:13:04;16.47;;;4.30;;
9597;SDS011;4837;50.890;4.724;2023-02-01T06:15:30;18.27;;;3.67;;
9597;SDS011;4837;50.890;4.724;2023-02-01T06:17:57;17.00;;;4.07;;
9597;SDS011;4837;50.890;4.724;2023-02-01T06:20:23;17.43;;;4.07;;
9597;SDS011;4837;50.890;4.724;2023-02-01T06:22:50;23.90;;;3.90;;
9597;SDS011;4837;50.890;4.724;2023-02-01T06:25:17;20.33;;;4.13;;
9597;SDS011;4837;50.890;4.724;2023-02-01T06:27:44;16.53;;;3.73;;
9597;SDS011;4837;50.890;4.724;2023-02-01T06:30:11;15.93;;;4.10;;
9597;SDS011;4837;50.890;4.724;2023-02-01T06:32:40;17.60;;;4.07;;
9597;SDS011;4837;50.890;4.724;2023-02-01T06:35:07;16.23;;;4.23;;
9597;SDS011;4837;50.890;4.724;2023-02-01T06:37:36;13.43;;;3.80;;
9597;SDS011;4837;50.890;4.724;2023-02-01T06:40:02;17.53;;;3.80;;
9597;SDS011;4837;50.890;4.724;2023-02-01T06:42:29;12.70;;;3.73;;
9597;SDS011;4837;50.890;4.724;2023-02-01T06:44:55;22.80;;;4.27;;
9597;SDS011;4837;50.890;4.724;2023-02-01T06:47:21;13.97;;;3.83;;
9597;SDS011;4837;50.890;4.724;2023-02-01T06:49:47;19.57;;;4.10;;
9597;SDS011;4837;50.890;4.724;2023-02-01T06:52:13;17.77;;;4.00;;
9597;SDS011;4837;50.890;4.724;2023-02-01T06:54:40;20.33;;;4.07;;
9597;SDS011;4837;50.890;4.724;2023-02-01T06:57:06;14.87;;;3.57;;
9597;SDS011;4837;50.890;4.724;2023-02-01T06:59:32;18.57;;;3.90;;
9597;SDS011;4837;50.890;4.724;2023-02-01T07:01:58;13.13;;;3.20;;
9597;SDS011;4837;50.890;4.724;2023-02-01T07:04:24;18.53;;;3.90;;
9597;SDS011;4837;50.890;4.724;2023-02-01T07:06:50;18.80;;;3.60;;
9597;SDS011;4837;50.890;4.724;2023-02-01T07:09:16;19.33;;;4.20;;
9597;SDS011;4837;50.890;4.724;2023-02-01T07:11:42;20.77;;;4.13;;
9597;SDS011;4837;50.890;4.724;2023-02-01T07:14:09;18.57;;;4.70;;
9597;SDS011;4837;50.890;4.724;2023-02-01T07:16:36;23.93;;;4.10;;
9597;SDS011;4837;50.890;4.724;2023-02-01T07:19:02;15.47;;;3.93;;
9597;SDS011;4837;50.890;4.724;2023-02-01T07:21:28;13.97;;;3.90;;
9597;SDS011;4837;50.890;4.724;2023-02-01T07:23:54;18.33;;;4.17;;
9597;SDS011;4837;50.890;4.724;2023-02-01T07:26:21;19.37;;;3.90;;
9597;SDS011;4837;50.890;4.724;2023-02-01T07:28:47;16.97;;;4.53;;
9597;SDS011;4837;50.890;4.724;2023-02-01T07:31:15;18.67;;;3.70;;
9597;SDS011;4837;50.890;4.724;2023-02-01T07:33:43;16.90;;;3.97;;
9597;SDS011;4837;50.890;4.724;2023-02-01T07:36:16;16.53;;;3.97;;
9597;SDS011;4837;50.890;4.724;2023-02-01T07:38:42;18.03;;;4.13;;
9597;SDS011;4837;50.890;4.724;2023-02-01T07:41:09;21.27;;;3.93;;
9597;SDS011;4837;50.890;4.724;2023-02-01T07:43:35;15.47;;;4.53;;
9597;SDS011;4837;50.890;4.724;2023-02-01T07:46:02;17.30;;;3.97;;
9597;SDS011;4837;50.890;4.724;2023-02-01T07:48:29;23.33;;;4.17;;
9597;SDS011;4837;50.890;4.724;2023-02-01T07:53:24;18.10;;;4.00;;
9597;SDS011;4837;50.890;4.724;2023-02-01T07:55:51;17.60;;;3.80;;
9597;SDS011;4837;50.890;4.724;2023-02-01T07:58:17;16.40;;;4.53;;
9597;SDS011;4837;50.890;4.724;2023-02-01T08:00:43;19.40;;;3.80;;
9597;SDS011;4837;50.890;4.724;2023-02-01T08:03:27;14.80;;;3.57;;
9597;SDS011;4837;50.890;4.724;2023-02-01T08:05:54;17.30;;;4.50;;
9597;SDS011;4837;50.890;4.724;2023-02-01T08:08:20;17.87;;;4.63;;
9597;SDS011;4837;50.890;4.724;2023-02-01T08:10:46;19.23;;;4.43;;
9597;SDS011;4837;50.890;4.724;2023-02-01T08:13:13;16.10;;;4.07;;
9597;SDS011;4837;50.890;4.724;2023-02-01T08:15:39;15.63;;;4.00;;
9597;SDS011;4837;50.890;4.724;2023-02-01T08:18:05;13.20;;;3.67;;
9597;SDS011;4837;50.890;4.724;2023-02-01T08:20:31;15.00;;;3.93;;
9597;SDS011;4837;50.890;4.724;2023-02-01T08:22:59;18.43;;;4.07;;
9597;SDS011;4837;50.890;4.724;2023-02-01T08:25:25;24.97;;;4.80;;
9597;SDS011;4837;50.890;4.724;2023-02-01T08:27:52;17.67;;;4.70;;
9597;SDS011;4837;50.890;4.724;2023-02-01T08:30:19;14.97;;;3.57;;
9597;SDS011;4837;50.890;4.724;2023-02-01T08:32:45;14.90;;;4.33;;
9597;SDS011;4837;50.890;4.724;2023-02-01T08:35:11;17.73;;;4.80;;
9597;SDS011;4837;50.890;4.724;2023-02-01T08:37:37;15.33;;;3.97;;
9597;SDS011;4837;50.890;4.724;2023-02-01T08:40:04;16.90;;;4.13;;
9597;SDS011;4837;50.890;4.724;2023-02-01T08:42:30;22.63;;;6.10;;
9597;SDS011;4837;50.890;4.724;2023-02-01T08:45:14;15.53;;;4.20;;
9597;SDS011;4837;50.890;4.724;2023-02-01T08:47:40;17.50;;;4.20;;
9597;SDS011;4837;50.890;4.724;2023-02-01T08:50:07;25.00;;;4.37;;
9597;SDS011;4837;50.890;4.724;2023-02-01T08:52:33;16.70;;;4.00;;
9597;SDS011;4837;50.890;4.724;2023-02-01T08:55:00;21.17;;;4.00;;
9597;SDS011;4837;50.890;4.724;2023-02-01T08:57:26;12.80;;;3.77;;
9597;SDS011;4837;50.890;4.724;2023-02-01T08:59:52;16.17;;;4.30;;
9597;SDS011;4837;50.890;4.724;2023-02-01T09:02:18;19.00;;;4.20;;
9597;SDS011;4837;50.890;4.724;2023-02-01T09:04:44;17.53;;;4.47;;
9597;SDS011;4837;50.890;4.724;2023-02-01T09:07:10;16.40;;;4.10;;
9597;SDS011;4837;50.890;4.724;2023-02-01T09:09:38;15.80;;;4.40;;
9597;SDS011;4837;50.890;4.724;2023-02-01T09:12:04;17.20;;;4.03;;
9597;SDS011;4837;50.890;4.724;2023-02-01T09:14:31;13.93;;;4.20;;
9597;SDS011;4837;50.890;4.724;2023-02-01T09:16:57;17.97;;;4.60;;
9597;SDS011;4837;50.890;4.724;2023-02-01T09:19:23;14.80;;;3.60;;
9597;SDS011;4837;50.890;4.724;2023-02-01T09:21:49;12.87;;;3.87;;
9597;SDS011;4837;50.890;4.724;2023-02-01T09:24:16;14.90;;;3.97;;
9597;SDS011;4837;50.890;4.724;2023-02-01T09:26:42;21.37;;;5.07;;
9597;SDS011;4837;50.890;4.724;2023-02-01T09:29:08;21.20;;;4.20;;
9597;SDS011;4837;50.890;4.724;2023-02-01T09:31:38;19.20;;;4.77;;
9597;SDS011;4837;50.890;4.724;2023-02-01T09:34:04;15.67;;;3.77;;
9597;SDS011;4837;50.890;4.724;2023-02-01T09:36:31;14.40;;;4.03;;
9597;SDS011;4837;50.890;4.724;2023-02-01T09:38:57;15.43;;;3.77;;
9597;SDS011;4837;50.890;4.724;2023-02-01T09:43:59;18.20;;;4.23;;
9597;SDS011;4837;50.890;4.724;2023-02-01T09:46:31;15.17;;;3.90;;
9597;SDS011;4837;50.890;4.724;2023-02-01T09:49:00;24.13;;;5.10;;
9597;SDS011;4837;50.890;4.724;2023-02-01T09:51:31;16.53;;;4.60;;
9597;SDS011;4837;50.890;4.724;2023-02-01T09:57:02;16.70;;;4.33;;
9597;SDS011;4837;50.890;4.724;2023-02-01T10:02:16;15.77;;;4.33;;
9597;SDS011;4837;50.890;4.724;2023-02-01T10:04:43;17.13;;;4.30;;
9597;SDS011;4837;50.890;4.724;2023-02-01T10:07:15;15.60;;;3.60;;
9597;SDS011;4837;50.890;4.724;2023-02-01T10:09:47;15.93;;;3.53;;
9597;SDS011;4837;50.890;4.724;2023-02-01T10:15:13;18.80;;;3.90;;
9597;SDS011;4837;50.890;4.724;2023-02-01T10:20:28;11.27;;;3.70;;
9597;SDS011;4837;50.890;4.724;2023-02-01T10:23:13;17.70;;;4.93;;
9597;SDS011;4837;50.890;4.724;2023-02-01T10:25:55;10.90;;;3.53;;
9597;SDS011;4837;50.890;4.724;2023-02-01T10:28:21;16.43;;;3.80;;
9597;SDS011;4837;50.890;4.724;2023-02-01T10:30:49;14.40;;;3.80;;
9597;SDS011;4837;50.890;4.724;2023-02-01T10:33:18;19.60;;;4.43;;
9597;SDS011;4837;50.890;4.724;2023-02-01T10:35:49;13.60;;;3.77;;
9597;SDS011;4837;50.890;4.724;2023-02-01T10:38:27;11.93;;;3.33;;
9597;SDS011;4837;50.890;4.724;2023-02-01T10:40:55;15.93;;;3.53;;
9597;SDS011;4837;50.890;4.724;2023-02-01T10:43:22;12.77;;;3.22;;
9597;SDS011;4837;50.890;4.724;2023-02-01T10:45:49;11.45;;;3.10;;
9597;SDS011;4837;50.890;4.724;2023-02-01T10:48:15;12.60;;;3.50;;
9597;SDS011;4837;50.890;4.724;2023-02-01T10:50:46;14.43;;;3.40;;
9597;SDS011;4837;50.890;4.724;2023-02-01T10:53:17;13.38;;;3.17;;
9597;SDS011;4837;50.890;4.724;2023-02-01T10:58:17;14.52;;;3.45;;
9597;SDS011;4837;50.890;4.724;2023-02-01T11:00:54;12.63;;;3.05;;
9597;SDS011;4837;50.890;4.724;2023-02-01T11:03:30;10.10;;;2.97;;
9597;SDS011;4837;50.890;4.724;2023-02-01T11:05:57;17.43;;;3.93;;
9597;SDS011;4837;50.890;4.724;2023-02-01T11:08:24;13.00;;;3.67;;
9597;SDS011;4837;50.890;4.724;2023-02-01T11:10:57;15.68;;;3.85;;
9597;SDS011;4837;50.890;4.724;2023-02-01T11:13:27;13.07;;;3.35;;
9597;SDS011;4837;50.890;4.724;2023-02-01T11:15:55;14.63;;;3.35;;
9597;SDS011;4837;50.890;4.724;2023-02-01T11:18:28;12.70;;;3.70;;
9597;SDS011;4837;50.890;4.724;2023-02-01T11:20:55;12.30;;;3.63;;
9597;SDS011;4837;50.890;4.724;2023-02-01T11:23:23;15.98;;;3.25;;
9597;SDS011;4837;50.890;4.724;2023-02-01T11:25:51;14.47;;;3.57;;
9597;SDS011;4837;50.890;4.724;2023-02-01T11:28:18;10.55;;;2.90;;
9597;SDS011;4837;50.890;4.724;2023-02-01T11:30:44;11.05;;;2.90;;
9597;SDS011;4837;50.890;4.724;2023-02-01T11:33:13;11.50;;;3.13;;
9597;SDS011;4837;50.890;4.724;2023-02-01T11:35:39;14.32;;;3.67;;
9597;SDS011;4837;50.890;4.724;2023-02-01T11:38:12;10.38;;;3.03;;
9597;SDS011;4837;50.890;4.724;2023-02-01T11:40:39;13.47;;;3.40;;
9597;SDS011;4837;50.890;4.724;2023-02-01T11:43:22;11.02;;;3.03;;
9597;SDS011;4837;50.890;4.724;2023-02-01T11:45:57;9.55;;;3.00;;
9597;SDS011;4837;50.890;4.724;2023-02-01T11:48:24;10.15;;;3.40;;
9597;SDS011;4837;50.890;4.724;2023-02-01T11:53:23;11.68;;;2.90;;
9597;SDS011;4837;50.890;4.724;2023-02-01T12:06:55;10.30;;;2.67;;
9597;SDS011;4837;50.890;4.724;2023-02-01T12:17:12;12.33;;;3.20;;
9597;SDS011;4837;50.890;4.724;2023-02-01T12:20:00;8.85;;;2.55;;
9597;SDS011;4837;50.890;4.724;2023-02-01T12:38:05;12.95;;;2.13;;
9597;SDS011;4837;50.890;4.724;2023-02-01T12:43:09;9.32;;;2.47;;
9597;SDS011;4837;50.890;4.724;2023-02-01T12:45:42;12.23;;;2.42;;
9597;SDS011;4837;50.890;4.724;2023-02-01T12:50:56;10.30;;;2.45;;
9597;SDS011;4837;50.890;4.724;2023-02-01T12:53:29;8.57;;;2.40;;
9597;SDS011;4837;50.890;4.724;2023-02-01T12:55:57;8.23;;;2.47;;
9597;SDS011;4837;50.890;4.724;2023-02-01T12:58:30;9.05;;;2.70;;
9597;SDS011;4837;50.890;4.724;2023-02-01T13:00:59;9.55;;;2.30;;
9597;SDS011;4837;50.890;4.724;2023-02-01T13:03:40;12.05;;;2.30;;
9597;SDS011;4837;50.890;4.724;2023-02-01T13:11:27;9.87;;;2.20;;
9597;SDS011;4837;50.890;4.724;2023-02-01T13:21:56;9.43;;;2.58;;
9597;SDS011;4837;50.890;4.724;2023-02-01T13:26:53;13.25;;;2.65;;
9597;SDS011;4837;50.890;4.724;2023-02-01T13:29:19;9.17;;;2.33;;
9597;SDS011;4837;50.890;4.724;2023-02-01T13:42:05;11.13;;;3.83;;
9597;SDS011;4837;50.890;4.724;2023-02-01T13:44:38;9.82;;;2.03;;
9597;SDS011;4837;50.890;4.724;2023-02-01T13:47:11;10.18;;;2.45;;
9597;SDS011;4837;50.890;4.724;2023-02-01T13:49:38;7.90;;;1.93;;
9597;SDS011;4837;50.890;4.724;2023-02-01T13:52:06;8.85;;;2.50;;
9597;SDS011;4837;50.890;4.724;2023-02-01T13:54:33;9.82;;;2.40;;
9597;SDS011;4837;50.890;4.724;2023-02-01T13:57:02;8.10;;;2.00;;
9597;SDS011;4837;50.890;4.724;2023-02-01T14:04:50;12.57;;;2.65;;
9597;SDS011;4837;50.890;4.724;2023-02-01T14:07:17;10.60;;;2.45;;
9597;SDS011;4837;50.890;4.724;2023-02-01T14:09:44;9.70;;;2.15;;
9597;SDS011;4837;50.890;4.724;2023-02-01T14:15:16;6.53;;;2.30;;
9597;SDS011;4837;50.890;4.724;2023-02-01T14:17:41;11.35;;;2.28;;
9597;SDS011;4837;50.890;4.724;2023-02-01T14:22:59;10.60;;;2.42;;
9597;SDS011;4837;50.890;4.724;2023-02-01T14:25:25;9.88;;;2.40;;
9597;SDS011;4837;50.890;4.724;2023-02-01T14:27:57;13.88;;;2.40;;
9597;SDS011;4837;50.890;4.724;2023-02-01T14:30:23;10.25;;;2.10;;
9597;SDS011;4837;50.890;4.724;2023-02-01T14:32:50;8.13;;;2.67;;
9597;SDS011;4837;50.890;4.724;2023-02-01T14:35:20;9.73;;;2.50;;
9597;SDS011;4837;50.890;4.724;2023-02-01T14:37:50;8.77;;;2.35;;
9597;SDS011;4837;50.890;4.724;2023-02-01T14:40:19;7.40;;;2.60;;
9597;SDS011;4837;50.890;4.724;2023-02-01T14:42:47;12.05;;;2.60;;
9597;SDS011;4837;50.890;4.724;2023-02-01T14:47:49;12.50;;;2.55;;
9597;SDS011;4837;50.890;4.724;2023-02-01T14:55:33;9.40;;;2.63;;
9597;SDS011;4837;50.890;4.724;2023-02-01T14:58:01;9.43;;;2.70;;
9597;SDS011;4837;50.890;4.724;2023-02-01T15:00:29;11.15;;;3.08;;
9597;SDS011;4837;50.890;4.724;2023-02-01T15:03:11;10.20;;;3.25;;
9597;SDS011;4837;50.890;4.724;2023-02-01T15:05:41;8.03;;;2.70;;
9597;SDS011;4837;50.890;4.724;2023-02-01T15:08:12;12.55;;;2.83;;
9597;SDS011;4837;50.890;4.724;2023-02-01T15:10:41;11.25;;;2.63;;
9597;SDS011;4837;50.890;4.724;2023-02-01T15:13:20;12.57;;;2.53;;
9597;SDS011;4837;50.890;4.724;2023-02-01T15:15:59;7.75;;;2.30;;
9597;SDS011;4837;50.890;4.724;2023-02-01T15:18:25;9.38;;;2.63;;
9597;SDS011;4837;50.890;4.724;2023-02-01T15:20:58;11.80;;;2.72;;
9597;SDS011;4837;50.890;4.724;2023-02-01T15:23:25;11.13;;;2.60;;
9597;SDS011;4837;50.890;4.724;2023-02-01T15:25:51;13.90;;;2.87;;
9597;SDS011;4837;50.890;4.724;2023-02-01T15:28:17;11.27;;;2.42;;
9597;SDS011;4837;50.890;4.724;2023-02-01T15:33:22;15.63;;;2.78;;
9597;SDS011;4837;50.890;4.724;2023-02-01T15:35:49;12.15;;;2.50;;
9597;SDS011;4837;50.890;4.724;2023-02-01T15:40:57;9.18;;;2.70;;
9597;SDS011;4837;50.890;4.724;2023-02-01T15:43:24;13.25;;;2.80;;
9597;SDS011;4837;50.890;4.724;2023-02-01T15:45:51;10.60;;;3.23;;
9597;SDS011;4837;50.890;4.724;2023-02-01T15:48:21;10.30;;;2.63;;
9597;SDS011;4837;50.890;4.724;2023-02-01T15:50:48;9.77;;;3.03;;
9597;SDS011;4837;50.890;4.724;2023-02-01T15:53:24;8.10;;;2.83;;
9597;SDS011;4837;50.890;4.724;2023-02-01T15:55:57;12.55;;;2.83;;
9597;SDS011;4837;50.890;4.724;2023-02-01T15:58:24;12.75;;;2.97;;
9597;SDS011;4837;50.890;4.724;2023-02-01T16:04:00;11.32;;;2.92;;
9597;SDS011;4837;50.890;4.724;2023-02-01T16:06:08;14.05;;;3.47;;
9597;SDS011;4837;50.890;4.724;2023-02-01T16:08:35;13.67;;;3.60;;
9597;SDS011;4837;50.890;4.724;2023-02-01T16:13:34;10.07;;;2.97;;
9597;SDS011;4837;50.890;4.724;2023-02-01T16:16:00;11.50;;;3.27;;
9597;SDS011;4837;50.890;4.724;2023-02-01T16:18:26;11.23;;;3.20;;
9597;SDS011;4837;50.890;4.724;2023-02-01T16:20:53;10.03;;;2.87;;
9597;SDS011;4837;50.890;4.724;2023-02-01T16:23:19;12.67;;;3.10;;
9597;SDS011;4837;50.890;4.724;2023-02-01T16:25:45;10.70;;;3.08;;
9597;SDS011;4837;50.890;4.724;2023-02-01T16:28:12;14.35;;;2.75;;
9597;SDS011;4837;50.890;4.724;2023-02-01T16:30:38;10.37;;;3.13;;
9597;SDS011;4837;50.890;4.724;2023-02-01T16:33:04;12.13;;;3.30;;
9597;SDS011;4837;50.890;4.724;2023-02-01T16:35:32;8.33;;;2.73;;
9597;SDS011;4837;50.890;4.724;2023-02-01T16:38:13;11.60;;;3.17;;
9597;SDS011;4837;50.890;4.724;2023-02-01T16:40:40;21.02;;;3.78;;
9597;SDS011;4837;50.890;4.724;2023-02-01T16:43:20;16.40;;;3.30;;
9597;SDS011;4837;50.890;4.724;2023-02-01T16:45:47;11.70;;;3.17;;
9597;SDS011;4837;50.890;4.724;2023-02-01T16:48:23;15.50;;;3.47;;
9597;SDS011;4837;50.890;4.724;2023-02-01T16:50:52;11.95;;;3.60;;
9597;SDS011;4837;50.890;4.724;2023-02-01T16:53:19;12.53;;;3.60;;
9597;SDS011;4837;50.890;4.724;2023-02-01T16:55:45;17.67;;;5.28;;
9597;SDS011;4837;50.890;4.724;2023-02-01T16:58:13;13.25;;;3.55;;
9597;SDS011;4837;50.890;4.724;2023-02-01T17:00:39;16.77;;;3.50;;
9597;SDS011;4837;50.890;4.724;2023-02-01T17:03:05;12.73;;;3.27;;
9597;SDS011;4837;50.890;4.724;2023-02-01T17:05:32;10.80;;;2.83;;
9597;SDS011;4837;50.890;4.724;2023-02-01T17:08:02;10.07;;;3.10;;
9597;SDS011;4837;50.890;4.724;2023-02-01T17:10:29;11.88;;;2.83;;
9597;SDS011;4837;50.890;4.724;2023-02-01T17:12:56;14.20;;;3.17;;
9597;SDS011;4837;50.890;4.724;2023-02-01T17:15:23;10.07;;;2.70;;
9597;SDS011;4837;50.890;4.724;2023-02-01T17:17:49;14.00;;;3.20;;
9597;SDS011;4837;50.890;4.724;2023-02-01T17:20:22;15.77;;;3.20;;
9597;SDS011;4837;50.890;4.724;2023-02-01T17:22:49;12.27;;;3.13;;
9597;SDS011;4837;50.890;4.724;2023-02-01T17:25:16;12.98;;;3.47;;
9597;SDS011;4837;50.890;4.724;2023-02-01T17:27:43;14.50;;;3.22;;
9597;SDS011;4837;50.890;4.724;2023-02-01T17:30:10;12.13;;;2.97;;
9597;SDS011;4837;50.890;4.724;2023-02-01T17:32:36;13.55;;;3.50;;
9597;SDS011;4837;50.890;4.724;2023-02-01T17:35:04;10.40;;;3.03;;
9597;SDS011;4837;50.890;4.724;2023-02-01T17:37:31;11.55;;;3.20;;
9597;SDS011;4837;50.890;4.724;2023-02-01T17:39:57;14.38;;;3.45;;
9597;SDS011;4837;50.890;4.724;2023-02-01T17:42:25;14.82;;;3.63;;
9597;SDS011;4837;50.890;4.724;2023-02-01T17:44:51;14.82;;;3.80;;